cliquez pour ajouter le site Runraid à vos favoris  English version (google)  Retour à l'accueil Ecrire à l'auteur du site Runraid : Michel Jourdan



Les prochaines courses


Les derniers résultats

cliquez pour visualiser la page complète relatant la chronologie des éruptions du Piton de la Fournaise
éruptions Piton de la Fournaise


Ile de La Réunion

 Diagonale des Fous 

Nouveautés du site

Ecrire au créateur du site : Michel Jourdan
Contact


2013-11-03 - Odyssea la Réunion

Pour consulter le palmarès d'un coureur, un clic sur son nom !

Vous avez des remarques, corrections, ... sur ces résultats , un clic sur --> pour me transmettre toute information concernant les classements


Odyssea la Réunion - 2013 : classement des 1479 finishers
Place Nom Temps Cat. Club Sexe Clt/cat.
Place Nom Temps Cat. Club Sexe Clt/cat.
1 OLIVAR Johny 00:35:39 SEH - M 1383
2 BARDEUR Nicolas 00:36:08 - M 16
3 NOTZOLD Mahe 00:36:15 ASDR M 273
4 VIDOT Yannick 00:36:28 BNA M 1016
5 CHARTIER Jacques Alban 00:36:55 SEM DSA M 1490
6 OLIVAR Jean Noel 00:37:24 - M 1359
7 DUMONT Jean Claude 00:37:34 CA Plaine des Palmistes M 59
8 CEUS Jocelyn Michel 00:37:52 SEM DSA M 464
9 FLORENCY Gerard 00:38:04 - M 1095
10 GARCIN Jean Emile 00:38:18 - M 1313
11 MARIE MARTHE Rudy 00:38:26 - M 1520
12 NARAYANASSAMY Sebastien 00:38:30 AC ST ANDRE M 821
13 TURBAN Johan 00:38:49 - M 1161
14 GARDEBIEN Kevin 00:39:07 DSA M 267
15 SeVERIN Romain 00:39:10 - M 205
16 BEN ARFA Adel 00:39:15 - M 1046
17 FONTAINE Kenny 00:39:24 - M 1499
18 DUBOIS Vivien 00:39:29 - M 56
19 MAURIN Dominique 00:39:30 - M 781
20 BEAUVAL Vincent 00:39:36 ACSL M 402
21 CONTE Christophe 00:39:38 TCSSD M 479
22 CAREL Sebastien 00:39:39 - M 1473
23 MACE Sebastien 00:39:40 CAC M 760
24 GILEROT Juliano 00:39:47 - M 80
25 LONI Jonathan 00:40:04 - M 753
26 HIBON Bertrand 00:40:07 BNA M 643
27 POTHIN Stephane 00:40:20 - M 1389
28 LON MON POY Eric 00:40:26 - M 1412
29 LePINAY Jean Liot 00:40:29 - M 1472
30 Dossard 1703 00:40:33 - M 1703
31 MORISCOT Didier Nicolas 00:40:43 - M 1393
32 LEVENEUR Xavier 00:40:46 Dimitile Sport Action M 140
33 CADARSI Florent 00:40:58 ESC Montagne M 446
34 MANICON Alain 00:41:00 - M 771
35 MAReE Sully 00:41:05 - M 143
36 PAYET JB Harry 00:41:05 - M 1355
37 PALAMA Baptiste 00:41:14 CALSS M 329
38 HOAREAU Yannick 00:41:15 - M 658
39 GASTRIN Olivier 00:41:15 - M 1489
40 BONHOMME Alexandre 00:41:21 - M 28
41 VIRAMA MANICON Pierre 00:41:26 - M 1438
42 VIDOT Jean francois 00:41:28 BNA M 1015
43 TOBOS Olivier 00:41:29 - M 985
44 ETHeVE Laurent 00:41:33 CA Plaine des Palmistes M 64
45 Dossard 00:41:36 - M 0
46 MARIE FRANcOISE Roger Fred 00:41:39 - M 1322
47 TAUROBEAULION Thierry 00:41:40 - M 1523
48 HOAREAU Jean Daniel 00:41:44 - M 1363
49 ATIA Anne 00:41:52 ADISS F 1ere F 10
50 MAREUX Eugenie 00:41:52 CAPC F 1ere F 774
51 NOURRY Henri 00:41:55 - M 161
52 D'EURVEILHER Pascal 00:41:57 CAPC M 514
53 HUET Christophe 00:42:01 CAPP M 667
54 GRANGE Gilles 00:42:02 - M 1208
55 PELKA Thomas 00:42:06 - M 1514
56 GRONDIN Eric 00:42:11 - M 1624
57 GONTHIER David 00:42:19 - M 609
58 JOANY Emmanuel 00:42:27 - M 1524
59 BOYER Laurent 00:42:28 TCSA M 432
60 BERTHILDE Buchner 00:42:29 RUN OXYGENE 974 M 413
61 AH FANE Alexandre 00:42:31 - M 1228
62 RIVIERE Dominique 00:42:40 AVALASSE M 928
63 GONNEAU Raphael 00:42:42 - M 1320
64 JIBANE Didier 00:42:42 - M 110
65 RIVIERE Daniel 00:42:43 - M 926
66 BLANCA Serge 00:42:45 Les Zolies M 1085
67 BENTALEB Dalila 00:42:49 - F 3eme F 410
68 YOUNE KAYE Jean Bernard 00:42:54 - M 1378
69 CALPeTARD Marie Sandrine 00:43:04 Dominicaine F 4eme Feminine 40
70 JURET Laurent 00:43:11 - M 1669
71 JUVENAL Joel 00:43:18 Curves Le Port M 289
72 GAUTIER Adrien 00:43:23 - M 589
73 MITHRIDATE Jimmy 00:43:28 - M 1630
74 MARIE JEANNE Jean Michel 00:43:30 - M 1545
75 JEANNEAU Willy 00:43:33 V1M - M 680
76 AUBERT Olivier 00:43:35 - M 382
77 ABMON Olivier 00:43:43 - M 4
78 ANDICHY Thierry 00:43:45 - M 8
79 PRUGNIeRES Eric 00:43:46 Pass Running M 184
80 CHAN MAN HAN Alexandre 00:43:53 - M 466
81 BEAULIEU Jeannick 00:43:53 - M 1606
82 BOYER Nicolas 00:43:54 CALSS M 343
83 HOAREAU Jean Luc 00:43:55 - M 1281
84 MOULIN Sylvie 00:44:04 - F 5eme Feminine 1661
85 SAHRAOUI Abdelkrim 00:44:05 - M 1693
86 FRAUMENS Mathieu 00:44:06 - M 1681
87 PAYET Antoine 00:44:08 - M 1352
88 PIOT Jean Louis 00:44:13 - M 1361
89 FONTAINE Mathias 00:44:17 - M 1328
90 Dossard 1794 00:44:21 - M 1794
91 BARRET Moise 00:44:22 - M 1594
92 MERLO Jean alcide 00:44:25 - M 783
93 JURE Lucien 00:44:29 - M 1670
94 ICHANE JEAN LUC 00:44:31 - M 670
95 RIVIeRE Jacques 00:44:34 - M 1109
96 PALMA Johan 00:44:47 - M 839
97 CLAIN Alexandra 00:44:47 - F 6eme Feminine 1128
98 VARAMATA Olivier 00:44:49 - M 1004
99 JOMA Mathias 00:44:50 - M 1466
100 RASOLOFON Michael Audrey 00:44:51 - F 1613
101 VITRY Jean hugues 00:44:55 CCFR M 1025
102 HOARAU Gilles 00:44:59 - M 655
103 Dossard 1796 00:45:00 - M 1796
104 Dossard 00:45:02 - M 0
105 THIERRY Abraham 00:45:04 - M 979
106 HOARAU Frederic 00:45:05 - M 94
107 BERFIL Erickson 00:45:09 - M 1318
108 PAYET Christophe 00:45:13 - M 869
109 DEPECHER Sebastien 00:45:14 - M 510
110 RANDRIANASOLO Freddy 00:45:18 Carabins de la Reunion M 250
111 ASTRUC Benoit paul 00:45:19 - M 380
112 GODERON Jeremy 00:45:22 - M 1475
113 DEBeSE Livia 00:45:27 - F 1623
114 ABMON Jean Jacques 00:45:27 - M 2
115 NEFF Jean Hugues 00:45:28 Carabins de la Reunion M 249
116 BOUCHER Guillaume 00:45:30 - M 1402
117 LEZAIS Erick 00:45:31 - M 747
118 CHEVRET Jerome 00:45:33 Trail Kreol M 1099
119 DALLEAU Jean Patrick 00:45:35 - M 1502
120 PAYET Romain 00:45:36 Vie Libre M 237
121 LORET Samuel 00:45:37 TC Etampois M 754
122 BOYER Fernand Alexis 00:45:40 - M 34
123 BeGUE William 00:45:43 - M 18
124 OLLIVIER Stephane 00:45:45 - M 1233
125 PERCRULE Felix 00:45:47 - M 873
126 CAPET Mario 00:45:49 - M 1040
127 OUNAMALE Fred 00:45:50 Resofe M 164
128 CUNDASSAMY Jimmy 00:45:50 - M 47
129 ABMON Sylvain 00:45:56 - M 3
130 Dossard 459 00:45:58 - M 459
131 GRANDMAISON Sebastien 00:46:02 - M 86
132 HOAREAU Jean Fred 00:46:03 - M 99
133 JUDITH Judicael 00:46:06 - M 1440
134 KAISSE Nadege 00:46:07 - F 1647
135 FANGUIMACHE Jean Luc 00:46:14 - M 654
136 MAReCHAL Sergio 00:46:18 - M 1596
137 NOeL Thierry 00:46:24 - M 1604
138 VIDOT Sebastien 00:46:26 - M 1654
139 GRONDIN Fabien 00:46:27 - M 619
140 RABEYRIN Romain 00:46:28 - M 1496
141 GRONDIN Leon Leonel 00:46:30 - M 1347
142 SAKTINI Malik 00:46:31 - M 1137
143 JEAN FRANcOIS Claude 00:46:32 Asso Jeff Tonight M 1207
144 ALENDROIT Clement 00:46:33 - M 1377
145 TECHER Jean francois 00:46:35 TCS M 968
146 LASTOUILLAT Jeannick 00:46:35 V2M - M 1535
147 BOTTERO Arnaud 00:46:36 - M 1477
148 NATIVEL Pierre 00:46:38 - M 822
149 MOREL Christophe 00:46:39 Victoria Club M 127
150 NABUCHODONOSOR Erik 00:46:39 - M 1073
151 SITAL DAHONE Francis 00:46:44 - M 1156
152 LAURET Jean Rene 00:46:44 - M 1239
153 GASTRIN Fredo 00:46:45 - M 1238
154 TROVALET Mathias 00:46:45 - M 1423
155 LAQUIA Henri 00:46:46 Sorefi M 121
156 GODERON Jonathan 00:46:51 - M 601
157 MAILLOT Gerard 00:46:51 - M 764
158 EMMA Sebastien 00:46:55 - M 1446
159 FOLGOAT Christian 00:46:55 - M 1525
160 LEVENEUR Willy 00:46:57 - M 137
161 JORON Francois 00:46:57 DSA M 686
162 GRAVELAT Olivier 00:46:58 - M 614
163 VELNA Boris 00:47:00 - M 1119
164 CLAIN Jean Luc 00:47:00 - M 1616
165 CAMILLE Noel 00:47:01 - M 1248
166 JAVEGNY Jean Ricca 00:47:02 Sema Team M 310
167 HOARAU Jean olivier 00:47:03 - M 653
168 CeLESTE Marie Francoise 00:47:04 - F 1146
169 MAILLOT Serges 00:47:06 - M 765
170 BOYER Eric 00:47:06 - M 1111
171 MULOT Andre claude 00:47:06 - M 814
172 ROGERO Neven 00:47:08 - M 936
173 PALAMA Guy Noel 00:47:10 CALSS M 334
174 CROS Sandra 00:47:10 - F 490
175 AH KING Christophe 00:47:20 - M 361
176 SIRACUSE Yohan 00:47:22 - M 958
177 PRIVAT Etienne 00:47:31 - M 901
178 APPAVOO Yannick 00:47:32 - M 372
179 FONTAINE Ginette 00:47:33 - F 1329
180 DELPIERRE Bernard 00:47:34 - M 507
181 ETHeVE Clement 00:47:43 - M 66
182 ITOULE Ludovic 00:47:48 - M 107
183 NAYAGOM Elien 00:47:48 - M 1194
184 DELAHAYE Yvan 00:47:49 - M 504
185 MESCAM Sylvie 00:47:50 BNA F 147
186 RICHARD Joel 00:47:52 CRC M 323
187 RECHE Bernard 00:47:52 - M 595
188 GOINDARASSOO Daniel 00:47:53 - M 602
189 ERUDEL Mickael 00:47:53 - M 1481
190 GRONDIN Georgio 00:47:55 - M 1553
191 HOAREAU Myrielle 00:47:55 AC Saint Benoit F 98
192 BELCOUR Dominique 00:47:56 SEF DENIV F 406
193 NOeL Fabio 00:47:57 - M 160
194 BEAUPAGE Dany 00:47:58 CALSS M 341
195 RENAMBATZ Sylvio 00:48:01 - M 1102
196 CANTENNAT Marion 00:48:06 CALSS F 1074
197 BOUTEILLER Patrick 00:48:06 - M 1392
198 BERTIL Pascal Joseph 00:48:08 - M 23
199 ODULeS Emmanuel 00:48:09 - M 1043
200 CLAIN Jacky 00:48:10 - M 1330
201 BARREAU Antoine 00:48:12 - M 396
202 ROBERT Gilles 00:48:16 Groupe Agnes Lebon M 227
203 NAGOU Charles 00:48:16 - M 819
204 ISSIANGUE Roberto 00:48:17 - M 674
205 PORTO Johan 00:48:20 - M 1327
206 LAURET Frederic 00:48:22 - M 715
207 BEDAN Christopher 00:48:23 - M 1246
208 NANDJAN Mariano 00:48:24 - M 1372
209 ABLANCOURT Freddo 00:48:25 - M 1518
210 MAGOUTIER Philippe 00:48:28 - M 762
211 ABBEZZOT Jean Sully 00:48:29 - M 1421
212 DESVERNE Lorrain 00:48:33 COSPI F 513
213 POIRIER Herve 00:48:35 - M 180
214 RIFFIOD Frederic 00:48:38 - M 917
215 MOREL Frederic 00:48:38 Case Plaine des Gregues M 151
216 GRENIER Mickael 00:48:40 - M 1434
217 ROMAIN Alix 00:48:42 - M 938
218 SORET Olivier 00:48:44 - M 1595
219 VAiTILINGOM Alexandre 00:48:47 - M 1056
220 DEMOUSTIER Jean Francois 00:48:50 - M 1174
221 JALLIER Eric 00:48:51 CALSS M 326
222 RAGOT Benedicte 00:48:51 - F 904
223 SOUEIDAN Khaled 00:48:52 - M 960
224 LAURET Rene Claude 00:48:52 - M 124
225 BEAUVAL Jeremy 00:48:57 Suzette M 1094
226 GONTHIER Expedit 00:48:57 - M 607
227 RODRIGUEZ Karine 00:48:57 - F 935
228 VIDOT Wilfried 00:48:58 - M 220
229 GOUAILLARDET Ivan 00:48:59 - M 1054
230 RIVIeRE Jean Baptiste 00:49:00 - M 1110
231 DOS SANTOS Jerome 00:49:02 - M 529
232 PIERARD Maxime 00:49:05 - M 1494
233 THOMAS Joelle 00:49:06 - F 1158
234 HOARAU Marie 00:49:07 - F 1266
235 MARIE MARTHE Jean Philippe 00:49:08 CALSS M 1070
236 GAMOVA Alexandre 00:49:08 - M 1157
237 DIJOUX Jerome 00:49:09 - M 1367
238 LEBON Guillaume 00:49:11 - M 1262
239 JUNON Jean Raymond 00:49:13 - M 1578
240 NEAU Rolande 00:49:16 La Postillonne Longjumeau F 159
241 LENCLUME Marie Guy 00:49:16 - M 136
242 AURECHE Vincent 00:49:20 - M 385
243 FIARDA Albert 00:49:20 - M 1192
244 LEBON Claude Andre 00:49:21 - M 130
245 BELUS Arielle 00:49:22 - F 21
246 LETHENET Isabelle 00:49:24 - F 1512
247 ASSOUMANI AHAMADA Said 00:49:25 - M 9
248 MARTIN Steve 00:49:25 - M 1526
249 ABODI Gilbert 00:49:26 - M 353
250 APOSTIN Jean yannick 00:49:31 - M 369
251 RACINE Alain 00:49:33 - M 1476
252 HUET Frederic 00:49:35 Vie Libre M 233
253 CLAIN Jacques 00:49:36 - M 1256
254 FIBAC Jean Bernard 00:49:36 - M 69
255 DeSIRe Yannis 00:49:38 Semader M 1185
256 BROUSSOLLE Frederic 00:49:40 - M 1457
257 RODRIGUEZ Ye 00:49:40 - F 1456
258 CARCREFF Eliot 00:49:41 - M 456
259 LIGDAMIS Robert 00:49:42 - M 749
260 AURECHE Gilbert 00:49:43 - M 386
261 ESTHER Guillaume 00:49:47 - M 1315
262 ROCHEFEUILLE Gerard 00:49:48 - M 1240
263 LACROIX Jerome 00:49:50 - M 1325
264 BARRET Edy Paul 00:49:50 - M 1501
265 ABNER Jeremy 00:49:53 - M 352
266 CHICA Stephane 00:49:53 - M 45
267 RAYEROUX Nicolas 00:49:54 CAC M 910
268 LEPERLIER Agniel 00:49:55 - M 1416
269 PAUSE Magalie 00:49:59 - F 844
270 LAU FAT Kevin 00:49:59 Carabins de la Reunion M 245
271 GRONDIN Joselito 00:50:01 DSA M 620
272 PAYET Jean Claude 00:50:01 - M 1585
273 DIJOUX Edwige 00:50:04 - F 519
274 SIHOU Richelin 00:50:05 CSSDA M 207
275 RIOLLET Dominique 00:50:06 - M 190
276 ORBOIN Joseph 00:50:06 - M 1409
277 MOREL Melinda 00:50:08 Case Plaine des Gregues F 152
278 CHANE KI CHUNE Bernard 00:50:08 - M 467
279 PALAMA Jean hugues 00:50:10 - M 838
280 GHEFSI Frederic 00:50:12 - M 594
281 MACAUX Eric 00:50:14 - M 759
282 VITRY Gerard 00:50:20 Sema Team M 316
283 HOAREAU Marie Nadia 00:50:20 - F 1364
284 CHAMAND Olivier 00:50:21 La Pena Santa Maria F 1132
285 LAW SEK Jean Luc 00:50:22 - M 38
286 MAZEAU Pascal 00:50:22 - M 1202
287 PAYET Joseph Yves 00:50:23 - M 864
288 ABEMONTI Jean Marc 00:50:23 - M 1257
289 LAURET Max 00:50:25 - M 714
290 BEGUE Gerard 00:50:27 - M 404
291 ETHeVE Nicolas 00:50:27 - M 1486
292 MULLER Alain 00:50:28 - M 813
293 VALEAMA Wendy 00:50:28 - F 1001
294 BIENAIMe Sebastien 00:50:29 - M 1092
295 PANGLOSSE Fred 00:50:30 - M 840
296 BOULEVART Jerome 00:50:30 - M 427
297 VIET Frederic 00:50:32 - M 1019
298 LEBEAU Jean Bernard 00:50:32 - M 1103
299 GONTHIER Dominique 00:50:36 COSPCT M 269
300 LENCLUME Yannis 00:50:36 - M 737
301 TURPIN Jean Max 00:50:37 - M 1417
302 MARTIN Pierre 00:50:42 - M 1509
303 TeCHER Daniel 00:50:43 ESC Montagne M 1179
304 JESSUS Jean Luc 00:50:45 - M 1155
305 GIVRAN Nathalie 00:50:49 - F 84
306 SUZANNE Bruno 00:50:52 ASDR M 280
307 GABIOU Marie Jacqueline 00:50:53 - F 1541
308 EVALDRE Sebastien 00:50:53 - M 1537
309 RUE Ivan 00:50:54 - M 943
310 AUDIT Daniel 00:50:56 - M 383
311 BIGOT Jean Francois 00:50:56 - M 26
312 LEBON Marie Patricia 00:51:01 - F 1625
313 TIMMERMANS Sylvain 00:51:02 - M 1640
314 GLORET Aurelie 00:51:02 - F 1639
315 DUBEUF Jean Christophe 00:51:03 - M 1667
316 DIJOUX Jimmy 00:51:03 - M 1298
317 COUSSEAU Amandine 00:51:04 - F 666
318 BOUCHER Jean Philippe 00:51:05 - M 32
319 QUEST Magalie 00:51:07 RCSD F 1044
320 QUEST Philippe 00:51:07 RCSD M 1045
321 BOYER Jean claude 00:51:07 - M 436
322 RYFER Serge 00:51:15 - M 1278
323 BESSARD Anne 00:51:16 - F 415
324 FOUGEROUX Aurore 00:51:19 - F 578
325 MORAND Joel 00:51:23 - M 1314
326 PEYRE Manuel 00:51:32 - M 1495
327 BUSSON Ghislain 00:51:36 - M 444
328 PECH Stephane 00:51:36 - M 872
329 YEUNG SHUN FUN Serge 00:51:40 - M 1032
330 JEUSSET Patrick 00:51:43 - M 1505
331 GUICHARD Nathalie 00:51:48 - F 1280
332 MAILLOT Jerome 00:51:50 - M 766
333 TAOCHY Louis 00:51:54 - M 1478
334 ELIE Jacky 00:51:55 - M 1580
335 LEBON Matthieu 00:51:56 - M 1641
336 LAUNAY Stephane 00:51:57 - M 711
337 DEVANE Georges 00:51:57 - M 515
338 LUCIAN Luidgi 00:51:59 - M 1555
339 PONTIAC Enrico 00:52:01 - M 1271
340 MARLIERE Nicolas 00:52:02 - M 776
341 ELLAMA Guy Stephane 00:52:05 - M 1101
342 LEFEVRE Pierre etienne 00:52:06 - M 734
343 LECLERC GUILLOT Stephane 00:52:06 - M 1250
344 SILOTIA Patrick 00:52:08 - M 1445
345 VALINCOURT Alain 00:52:10 - M 1242
346 ROCHECOUSTE Catherine 00:52:10 - F 193
347 CONTE India 00:52:11 CA SAINTE MARIE F 480
348 DJAFFARDJEE Angela 00:52:12 Curves Le Port F 295
349 JOBLIN Thomas 00:52:12 AG2R La Mondiale M 111
350 LAi CHO TOAT Yannick 00:52:13 - M 1557
351 SIBI Jean Marc 00:52:14 - M 206
352 LEBON Bruno 00:52:16 - M 1459
353 RIVIeRE Jean Francois 00:52:20 - M 1539
354 CHABAUD Nadine 00:52:21 Laboratoire MSD F 42
355 GONTHIER Jean Alex 00:52:21 - M 1583
356 TURPIN Veronique 00:52:24 - F 1201
357 DOXIVILLE Florent 00:52:24 - M 1310
358 HOARAU Sully 00:52:25 - M 648
359 AMILY Jessica 00:52:29 - F 1373
360 LEPERLIER Harry 00:52:29 - M 738
361 MORTINAT David 00:52:30 BNA M 1552
362 QUILLEVeRE Marie 00:52:34 SEF - F 1657
363 PAYET Benjamin 00:52:36 - M 850
364 BeGUE Bernard 00:52:36 - M 1114
365 BASSONVILLE Joseph Clement 00:52:38 - M 1096
366 BOURRINET Mathieu 00:52:38 - M 429
367 TOUSTOU Nathalie 00:52:39 AB SAINT PAUL F 993
368 NOEL Yanis 00:52:39 V1M - M 1319
369 CALVEL Emmanuelle 00:52:43 - F 453
370 LEBON Philippe 00:52:50 - M 727
371 ASSON Olivier 00:52:52 - M 1105
372 CASSANTE Esperanza 00:52:53 - F 1479
373 PAYET Patrick 00:52:55 - M 1339
374 LEVENEUR Luguy 00:52:56 - M 138
375 MONTET Oceane 00:52:56 DSA F 795
376 GUTTON Christophe 00:52:57 CA POSSESSION M 634
377 RIOM BERLAND Valerie 00:52:58 - F 920
378 AVANZINI Nicolas 00:52:59 BERGERAC AC M 387
379 DESPRES Henri Pierre 00:53:00 - M 1666
380 HUET Edwige 00:53:02 CALSS F 347
381 PICARD Loic 00:53:02 - M 882
382 MOREL Bertrand 00:53:03 - M 1621
383 POTHIN MYRIAM 00:53:04 Les Gazelles F 95
384 DENNEMONT Alexandre 00:53:05 - M 1605
385 MANSOUX Guillaume 00:53:05 - M 772
386 SINIMALe Wilson 00:53:06 Sinelec M 1575
387 HOARAU Mathieu 00:53:07 - M 1366
388 MALFRAIT Nathalie 00:53:08 - F 770
389 BOYER Jean michel 00:53:08 - M 433
390 LAW DUNE PELAGIE 00:53:09 - M 1707
391 VINCENT Sylvie 00:53:10 - F 1023
392 JALMA Arnaud 00:53:11 - M 1215
393 FRANCOISE Alain 00:53:12 - M 581
394 LEVENEUR Benjamin 00:53:15 - M 744
395 ERUDEL Raphael 00:53:15 - M 1211
396 CARTON Maxime Elie 00:53:17 - M 41
397 BOUVIER Thomas 00:53:18 - M 431
398 PAYET Jean Emile 00:53:18 - M 865
399 BRU Nicolas 00:53:19 - M 1508
400 FRANCILLON Boris 00:53:19 - M 580
401 ARAGOT Erika 00:53:20 - F 1218
402 BOUVAREL Elodie 00:53:20 - F 1127
403 MOURAT Xavier 00:53:21 CALSS M 336
404 K/BIDI Jean Marc 00:53:23 - M 1340
405 MANY Yoann 00:53:23 - M 1374
406 FONTAINE Mathieu 00:53:24 - M 1198
407 SAINT ALME Alexandre 00:53:25 - M 945
408 ROSSIGNOL Jean Paul 00:53:25 V2M CALSS M 344
409 BOUTEUIL Patrice 00:53:26 - M 1482
410 ROMILY Stephan 00:53:27 - M 939
411 TONDA Sebastien 00:53:28 - M 1500
412 PAYET Claude 00:53:29 Trucs de filles F 398
413 LANSADE Christophe 00:53:29 - M 705
414 POTHIN Samuel 00:53:30 - M 1309
415 FONTAINE Jean marcel 00:53:31 - M 575
416 CONNAN Marie Therese 00:53:34 - F 1265
417 HAMILCARO Juanito 00:53:41 AG2R La Mondiale M 1106
418 GRONDIN Georget 00:53:43 - M 90
419 PEROT Samuel 00:53:43 Groupe Agnes Lebon M 225
420 HEGOBURU HIRIART Julie 00:53:43 - F 639
421 LECA Isabelle 00:53:46 DENIV F 731
422 LECA Dominique 00:53:47 V1M - M 732
423 LE GRAND Herve 00:53:47 - M 722
424 LIABEUF Patrice 00:53:47 - M 1301
425 SAGET Jenna 00:53:49 - F 944
426 RIVIeRE Mickael 00:53:49 - M 1170
427 PEREIRA Dominique 00:53:50 - M 874
428 RIVIeRE Lucas 00:53:50 - M 1274
429 GONTHIER Gregory 00:53:50 - F 605
430 DONET Charlotte 00:53:51 - F 528
431 HOSTEIN Valerie 00:53:51 - F 664
432 SALAMALA Frederic 00:53:52 - M 1082
433 ROMAN Loic 00:53:53 - M 1404
434 GeRARD Constance 00:53:57 - F 1615
435 ROGER Didier 00:53:58 - M 1338
436 PAVADEPOULLe Emmanuelle 00:53:59 - F 166
437 LePINAY Joel 00:54:03 - M 1532
438 GIRONCELLE Ulysse 00:54:06 - M 599
439 TAILAMe Jean Claude 00:54:08 - M 1521
440 GONTHIER Romain 00:54:10 - M 1287
441 HOARAU Jimmy 00:54:11 - M 1401
442 MAGLOIRE Christelle 00:54:11 - F 1419
443 MANIFICAT Francois 00:54:12 - M 1311
444 CEUS Jocelyn 00:54:12 DSA M 463
445 PANGLOSSE Johan 00:54:13 - M 841
446 TeTIA William 00:54:13 - M 1455
447 Dossard 00:54:14 - M 0
448 LePINAY Francoise 00:54:14 - F 1531
449 ERINACINT Clement 00:54:18 - M 544
450 BARET Jean Michel 00:54:18 La Pena Santa Maria M 1135
451 BeGUE Jean Raymond 00:54:22 - M 19
452 DAMOUR Marie claire 00:54:23 - F 496
453 TOTORO Johan 00:54:24 - M 987
454 SCHMITT Alexandra 00:54:26 - F 951
455 BELLO Florent 00:54:33 - M 1513
456 CHARLERY Nadine 00:54:33 - F 1167
457 TOURTEAU Emmanuel 00:54:33 - M 991
458 HOAREAU Jean Philippe 00:54:34 - M 1282
459 SOUSTRADE Bernard 00:54:34 - M 210
460 MAILLOT Sebastien 00:54:34 - M 1283
461 GOBALE Vanessa 00:54:35 - F 600
462 HOLSTEING Jean Fred 00:54:36 - M 104
463 CONNAN Rene 00:54:36 - M 1264
464 TURBY David 00:54:37 - M 1152
465 AMIReNE Jean Bernard 00:54:39 - M 1493
466 BeGUE Edric 00:54:39 - M 1214
467 MAILLOT Julien 00:54:40 - M 1291
468 PICARD Alain Joseph 00:54:40 - M 175
469 VARESI CAMILLE 00:54:40 - F 932
470 BASQUE Gilles 00:54:40 - M 399
471 DIAWARA Amadou 00:54:41 - M 517
472 CASINHAS Stephane 00:54:42 - M 1252
473 RIVIeRE Jean Ceylo 00:54:46 - M 1538
474 VOLTIGE Laurent 00:54:46 - M 222
475 ROBINO BENOIT 00:54:48 - M 1068
476 SeVERIN Jean Loristil 00:54:49 - M 1607
477 Dossard 660 00:54:50 - M 660
478 LOMBARD Flaminia 00:54:51 - F 752
479 ETHEVE Laetitia 00:54:52 CSSDA F 545
480 TIOUIRA Rudy 00:54:52 - M 1230
481 COME Christelle 00:54:53 - F 1260
482 GIRARD Judith 00:54:56 - F 83
483 PEYRE Matthieu 00:54:57 - M 1234
484 LALLEMAND Hugues 00:55:03 - M 1316
485 MOREL Laurent 00:55:06 - M 799
486 PILE Christophe 00:55:08 Curves Le Port M 286
487 JEUSSET Helene 00:55:10 - F 685
488 PERON Frederic 00:55:12 - M 878
489 FOCK SI MING Damien 00:55:13 Carabins de la Reunion M 243
490 GARA Jean Claude 00:55:13 - M 1351
491 TURBY Kevin 00:55:14 - M 1151
492 RIVIeRE Dany 00:55:15 Aresis M 1398
493 REDOUTE Edouard 00:55:15 - M 1258
494 LAURENCE Henri 00:55:17 - M 1236
495 PANSERA Sophie 00:55:17 V1F - F 842
496 CADET Serge 00:55:18 - M 447
497 GRONDIN Hugues 00:55:20 - M 622
498 GUINEFOLLEAU Marc 00:55:21 - M 633
499 NAYAGOM Danielle 00:55:25 - F 1193
500 ADRIANA Gilles 00:55:25 - M 1435
501 GONTHIER Maryvonne 00:55:29 - F 608
502 GALAIS VIDOT Karine 00:55:30 BNA F 584
503 GROSPERRIN Sacha 00:55:30 - F 1589
504 RONDET Christophe 00:55:30 - M 1050
505 LAVOGEZ Oriane 00:55:31 - F 718
506 LAPIERRE Olivier 00:55:32 - M 706
507 ARAYE Radji 00:55:35 - M 375
508 ARAYAPIN Lucay 00:55:38 CALSS M 1076
509 BOISSELIER Fabrice 00:55:39 - M 1343
510 TECHER Fabiola 00:55:40 - F 973
511 HUET Adrien 00:55:41 - M 668
512 BEAUVAL Philippe 00:55:41 - M 401
513 PAYET Liliane 00:55:42 - F 170
514 PIEDNOIR Olivier 00:55:43 - M 883
515 DENNEMONT Gerard 00:55:47 - M 1036
516 LAUDE Serge 00:55:48 - M 122
517 DE LA PLAINE Miguel 00:55:49 - M 502
518 TARANNE Frederic 00:55:50 - M 965
519 GRENOUILLE Eric 00:55:51 - M 616
520 LAMOLY Eulalie 00:55:56 - F 117
521 RIVIERE Christian 00:55:56 - M 930
522 DEVOUGE Thibaud 00:55:57 Run Depistages M 1183
523 MOREL Jean noel 00:55:58 - M 800
524 TeCHER Alexis 00:56:00 - M 1191
525 AGENOR DUTREMBLAY Danick 00:56:00 - M 357
526 FONTAINE Marie Claude 00:56:00 - F 71
527 VALINCOURT Rosane 00:56:03 - F 218
528 MOREL Jacky 00:56:03 Groupe Agnes Lebon M 228
529 PITREBOTH Philippe 00:56:03 Victoria Club M 179
530 BENARD GLADYS 00:56:03 - M 1533
531 PAYET Eric 00:56:06 - M 1297
532 COLLIN Armelle 00:56:07 - F 1626
533 BERGOULI Christophe 00:56:08 - M 412
534 BUSSON Teva 00:56:09 - M 445
535 BOUTARIC Agnes 00:56:11 - F 430
536 HIREL Eddie 00:56:14 - M 1491
537 OTIN Frederic 00:56:16 - M 1189
538 BAUTISTA Benoit 00:56:19 - M 1058
539 RETOLIA Christine 00:56:19 - F 186
540 JALLIER Benedicte 00:56:19 CALSS F 327
541 LEROY Geoffrey 00:56:20 - M 741
542 LAURENCE Lydia 00:56:21 - F 1237
543 SALIHI Azeddine 00:56:23 - M 1497
544 THOMAS Emmnanuelle 00:56:23 - F 983
545 GUICHARD Marie annick 00:56:24 - F 631
546 CYRILLE Philippe 00:56:25 - M 1190
547 LECLERC GUILLOTTE Florence 00:56:25 ACSL F 733
548 ADROVER Marie Aurore 00:56:25 - F 1121
549 BACHMANN Laurence 00:56:26 - F 1608
550 DENIS Blandine 00:56:27 - F 1507
551 DIJOUX Clement 00:56:27 - M 524
552 DENIS Nicolas 00:56:27 - M 1506
553 FILO Ludovic 00:56:28 - M 560
554 PAULIN Virginie Rita 00:56:30 - F 165
555 ZARADZKI Marion 00:56:30 - F 1034
556 ARCHAMBAULT Nadege 00:56:30 - F 377
557 LEGROS Therese 00:56:31 - F 736
558 MOYEUX Sophie 00:56:31 - F 812
559 ROGER Pascal 00:56:32 - M 1542
560 DESPRES Emilie 00:56:32 - F 512
561 FATOL Philippe 00:56:34 - M 1529
562 VIDOT Sebastien 00:56:39 - M 1426
563 DESPRAIRIES Josie 00:56:39 - F 1379
564 FELICITE Sophia marie andree 00:56:39 - F 557
565 BRANDON EUDOR Sandrine 00:56:40 - F 36
566 ETHeVE Dany 00:56:47 - F 1353
567 CAPDEBOSCQ Sophie 00:56:47 - F 1368
568 RININO Maryline 00:56:47 DSA F 919
569 RIVIERE Sebastien 00:56:48 - M 927
570 GRONDIN Viviane 00:56:48 - F 88
571 QUONIAM Celine 00:56:49 - F 903
572 TECHER Pascale 00:56:49 DSA F 971
573 HILLIER DAVIS Matthew 00:56:50 - M 644
574 LE NAY Bruno 00:56:50 - M 723
575 GIRERD Remi 00:56:51 - M 598
576 DUBEUF David 00:56:51 Run'Altitude M 1668
577 NANDJAN Brigitte 00:56:51 - F 1370
578 VILLACAMPA Adeline 00:56:51 - F 1020
579 GERMAIN Marlene 00:56:52 DSA F 593
580 PAYET Danielle 00:56:54 - F 866
581 VEZIN Bernard 00:56:59 CA POSSESSION M 1012
582 PAYET Gerald 00:57:00 - M 849
583 PAYET Sabrina 00:57:00 - F 848
584 LAURET Ludovic 00:57:00 - M 1652
585 BONNEAU Jocelyn Pierre 00:57:02 - M 29
586 BONNEAU Edith 00:57:02 - F 30
587 PERLOTTI Eric 00:57:03 - M 173
588 HOAREAU Stephane 00:57:06 Groupe Agnes Lebon M 224
589 TECHER Colette 00:57:06 - F 967
590 HOARAU Emmanuel 00:57:08 Carabins de la Reunion M 244
591 APOU Christian 00:57:08 - M 371
592 VAiTILINGOM Roland 00:57:10 - M 1051
593 GROZ Yoland 00:57:11 - M 1053
594 DALeLE Jean Marc 00:57:11 - M 1610
595 HASSANI El Hadji 00:57:12 - M 1467
596 PAMPHILE Expedit 00:57:14 - M 1300
597 NARSY Akshay 00:57:15 Carabins de la Reunion M 248
598 PLOQUIN Elise 00:57:17 - F 1487
599 BOOY Sandrine 00:57:18 - F 422
600 PIERRAT Thierry 00:57:19 AG2R La Mondiale M 176
601 VITRY Valerie 00:57:21 - F 1177
602 HOAREAU Bruno 00:57:21 - M 1698
603 Dossard 1433 00:57:21 - M 1433
604 RICHAUVET Eddie 00:57:21 - M 915
605 DAMOUR Colette 00:57:22 - F 1425
606 DEVOUGE Nathalie 00:57:24 Run Depistages F 1184
607 JEANNETTE Alain 00:57:25 - M 109
608 GONNEAU Annie Rose 00:57:25 Groupe Agnes Lebon F 230
609 SAUTRON Emmanuel 00:57:26 - M 1454
610 VIADeRE Max 00:57:26 - M 1439
611 HAJEK Serena 00:57:27 - F 1597
612 LEPISSIER Amandine 00:57:29 - F 1577
613 BOUFFERET Amelie 00:57:31 DSA F 425
614 CAMUSET Laure 00:57:37 - F 454
615 POTIER ELBAZIS Francis 00:57:38 - M 897
616 VERRIERE Catherine 00:57:38 - F 1011
617 DEVEAUX Stephanie 00:57:39 - F 1244
618 SERY Sylvie 00:57:39 - F 203
619 LE FUR Morgane 00:57:39 - F 721
620 MDJASSIRI Achata 00:57:40 - F 1223
621 AFFEJEE Samih 00:57:42 Carabins de la Reunion M 252
622 MARTIN CHAMPETIER Antoine 00:57:43 Carabins de la Reunion M 247
623 PEREZ Angelique 00:57:43 - F 876
624 GILOUPPE Laurent 00:57:45 - M 81
625 MOIRON Pascale 00:57:48 - F 793
626 GRONDIN Samuel 00:57:49 - M 1381
627 BERTRIX Clement 00:57:50 - M 25
628 HOARAU Alyre 00:57:52 - M 1162
629 MORAND Sophie 00:57:52 - F 797
630 MARA Martine 00:57:53 CSSDA F 773
631 KICHENAPANAIDOU Thierry 00:57:53 - M 690
632 HOAREAU Fabrice 00:57:55 - M 102
633 MERSENNE Florent 00:57:56 - M 1259
634 CREPU Gabriel 00:57:57 - M 1428
635 GRIMAUD Remy 00:57:57 - M 87
636 SORRE Veronique 00:57:59 - F 1113
637 RIVIeRE Miguy 00:58:00 - F 191
638 BAILLIF Jean Michel 00:58:01 - M 1387
639 RICHARD Elodie 00:58:05 Farfar F 187
640 PORTIER Anais 00:58:05 - F 893
641 PAYET Cedric 00:58:06 - M 1443
642 HEMERY Patrice 00:58:06 - M 640
643 MUNDUBELTZ LAVAL Marianne 00:58:08 - F 815
644 DANIEL Helene 00:58:09 - F 498
645 BONNEAU Freddy 00:58:10 DSA M 421
646 TONON Julie 00:58:14 - F 1676
647 SERVEAUX Patrice 00:58:18 Sema Team M 311
648 EUPHRASIE Jean paul 00:58:19 - M 550
649 POLLAND Pierre 00:58:20 - M 1462
650 RIVIERE Laura 00:58:22 - F 923
651 PAYET Harry 00:58:22 - M 168
652 LAVOCAT Marie Odile 00:58:24 - F 1609
653 HOAREAU Yveline 00:58:26 Curves Le Port F 292
654 JOUVENOT Florian 00:58:27 - M 1517
655 HOAREAU Esther 00:58:27 Curves Le Port M 287
656 BERTRIX Martial 00:58:27 - M 24
657 RIVIERE Emilie 00:58:27 - F 929
658 CADERBY Francis 00:58:28 - M 37
659 PAYET Wilfried 00:58:28 Sinelec M 1572
660 MERLO Lilian 00:58:28 - M 1399
661 PEREIRA COELHO DIAS Emilia 00:58:29 - F 875
662 PAYET Annie 00:58:32 - F 1097
663 TAOCHY Didier 00:58:32 - M 963
664 BREUIL Marie cecile 00:58:34 - F 439
665 TOURTE Pascale 00:58:34 - F 990
666 POTIN Charles Henri 00:58:34 - M 1550
667 MAILLOT Paul Francois 00:58:34 - M 767
668 BACCA Clarine 00:58:35 - F 12
669 BOLO Leon 00:58:35 - M 419
670 BACCA Emmanuel 00:58:36 - M 11
671 LEBON Emmanuel 00:58:36 - M 728
672 NAZE Bernadette 00:58:36 - F 826
673 HOAREAU Jonathan 00:58:36 - M 663
674 GAZE Genevieve 00:58:37 Run Depistages F 1187
675 FURIA Catherine 00:58:41 - F 1636
676 VILA Marcel 00:58:43 Dominicaine M 1304
677 COCAUD Herve 00:58:44 ACSP M 475
678 JAMS Magalie Reine 00:58:47 ACSL F 678
679 CRUCON Lucie 00:58:50 - F 491
680 MOREAU Nans johann 00:58:50 - M 798
681 TELL Fabien 00:58:50 Semader M 1186
682 PETREQUIN Norbert 00:58:51 CRC M 319
683 ELIZeON Dominique 00:58:55 - F 61
684 LAW WUN Thierry 00:58:55 - M 126
685 MONJOUR Anne 00:58:57 Curves Le Port F 293
686 MOREL Marie Beatrix 00:58:57 - F 149
687 LOCATE Haussman 00:58:57 CSSDA M 750
688 SIRACUSE Philippe 00:58:57 - M 208
689 GOURAUD Gilles 00:59:00 - M 611
690 POTA Stephanie 00:59:01 - F 895
691 PAYET Willy 00:59:02 - M 871
692 FONTAINE Ingrid 00:59:02 - F 571
693 CeSAR Jean Cedric 00:59:03 - M 1536
694 WALLERAND Corinne 00:59:04 - F 1029
695 DIJOUX Valerie 00:59:04 - F 1039
696 DERAND Liliane 00:59:05 CA POSSESSION F 511
697 GRIMOIRE Patrick 00:59:07 - M 1293
698 HACHE Valerie 00:59:08 - F 1289
699 PIERRAT Chantal 00:59:09 AG2R La Mondiale F 177
700 PERMACAOUDIN Vivien 00:59:11 Sinelec M 1570
701 VARENNE Annei 00:59:12 - F 1005
702 LAPOELE Alain 00:59:12 - M 707
703 CHAUDERLOT Gaetanine 00:59:14 - F 469
704 THOMAS Huguette 00:59:15 Curves Le Port F 301
705 SAiD Christelle 00:59:15 Curves Le Port F 299
706 OLIVAR Marie Josie 00:59:16 - F 1360
707 THAZAR Sylvie 00:59:16 - F 1126
708 BARDIL Yohan 00:59:17 - M 393
709 KUNDER Mariette 00:59:19 - F 112
710 LINARES Sandrine 00:59:21 ASDR F 271
711 BASTIDE Nicolas 00:59:22 Groupe Agnes Lebon M 223
712 MARTIN Yannick 00:59:26 Bred M 145
713 RIVIERE Nadia 00:59:26 DSA F 924
714 CORA Regine 00:59:27 - F 481
715 AUBERT Christophe 00:59:29 - M 1629
716 MOREL Sylvie 00:59:35 - F 150
717 DOURY Pierre 00:59:35 - M 530
718 LEBON Dany 00:59:37 - F 131
719 BATAILLE Jean Lou 00:59:38 - M 1642
720 SEVAi Fabrice 00:59:47 - F 970
721 BARET Jean Paul 00:59:48 - M 1203
722 SALAM Melanie 00:59:50 - F 946
723 PAYET Rosine 00:59:50 - F 1444
724 GASTELLIER FABRICE 00:59:51 - F 1204
725 PALIN Amandine 00:59:51 - F 1210
726 ISSIANGUE Clara 00:59:54 - F 673
727 NAUD Gerard 00:59:54 - M 823
728 PAYET Martine 00:59:57 - F 1249
729 SOLENTE Joachim 00:59:57 - M 1579
730 D'AGOSTINO Lydie 00:59:58 - F 493
731 BOYER Ketty 00:59:58 - F 1643
732 DIJOUX Lambert 00:59:59 - M 518
733 SINIMALe Bertrand 00:59:59 Sinelec M 1571
734 PALAMA Sebastien 01:00:01 - M 1041
735 SOULANGE Jules David 01:00:04 - M 209
736 EUPHRASIE Annick 01:00:04 CA POSSESSION F 549
737 DEFRANCE Soah 01:00:06 - F 503
738 JAUReS Nelcie 01:00:06 - F 1065
739 BOYER Nadeige 01:00:07 - F 435
740 BARC Florence 01:00:09 - F 1217
741 MAILLOT Emmanuel 01:00:09 - M 1519
742 POIRIER Elyse 01:00:10 - F 888
743 KOUAKOU Guillaume 01:00:11 - M 691
744 DURBANT Michelle 01:00:13 - F 1554
745 MASSAIN Marie renee 01:00:14 - F 780
746 LORION Bruno 01:00:16 Sema Team M 313
747 DEBEFFE Wendy 01:00:16 RUN ODYSSEA F 1522
748 LORIN Axel 01:00:17 - M 1221
749 QUERAUX Sophie 01:00:20 - F 902
750 HONORINE Antonio 01:00:21 ASDR M 275
751 HOARAU Fabrice 01:00:22 - M 1227
752 CLERC Patricia 01:00:23 CRC F 320
753 BAUDOU Thomas 01:00:28 - M 1429
754 ALLANcON Aurore 01:00:28 - F 1017
755 SCHAEFFER CANU Severine 01:00:28 - F 1617
756 PLANCHARD Sophie 01:00:28 - F 1602
757 PAYET Brigitte 01:00:29 - F 169
758 FRUTEAU DE LACLOS Alexandra 01:00:31 CA POSSESSION F 582
759 STANUS DAMBREVILLE Joane 01:00:32 - F 1567
760 HOARAU David 01:00:35 Curves Le Port M 285
761 BOYER Thierry 01:00:36 - M 437
762 FOURNIER David 01:00:42 - M 1658
763 FILAIN Bruno 01:00:42 - M 559
764 TREVESAIGUES Marie paule 01:00:43 - F 994
765 CADET Olivier 01:00:44 - M 450
766 LEBON Jean yves 01:00:45 - M 726
767 LEBON Elisabeth 01:00:52 - F 1200
768 JEAN BAPTISTE Sophie 01:00:54 - F 1120
769 TARDIVEL Brigitte 01:00:55 - F 966
770 ROBERT Jude 01:00:58 - M 1601
771 MINATCHY Georges 01:00:59 - M 1548
772 BOYER Christophe 01:00:59 - M 434
773 GOUTORBE Fabienne 01:00:59 Curves Le Port F 296
774 CHOMBEAU Corentine 01:01:00 - F 470
775 LE GRAIN Yoann 01:01:00 - M 1115
776 MAILLARD Sandrine 01:01:01 - F 763
777 LEROY Caroline 01:01:02 Asso Jeff Tonight F 1206
778 DAREY Angelique 01:01:02 - F 499
779 DAMARTIN Jean Luc 01:01:03 - M 1302
780 MUSSARD Christine 01:01:03 - F 157
781 NAYAGOM Teddy 01:01:08 Curves Le Port M 288
782 LARCHER Christian 01:01:16 - M 1295
783 LEMAIRE Maite Anita 01:01:17 - F 1612
784 LOGEZ Anne Sophie 01:01:17 Runeuses F 1651
785 LESNE Philippe 01:01:18 - M 1671
786 GARDEBIEN Emmanuel 01:01:19 RC Saint Denis M 75
787 GILLET Marcel 01:01:20 - M 596
788 HUBERT Laurence 01:01:20 - F 665
789 LALLEMAND Brigitte marie yvonne 01:01:22 - F 700
790 LALLEMAND Joel 01:01:22 - M 699
791 FONTAINE Viviane 01:01:24 - F 1697
792 LACAILLE Jean Luc 01:01:25 - M 1436
793 ALBA Jean Luc 01:01:26 - M 1614
794 GRUCHET Kelly 01:01:27 - F 628
795 AH FAT Ingrid 01:01:29 - F 360
796 CHARLERY Laurence 01:01:29 - F 1168
797 VAiTILINGOM Antoinette 01:01:30 - F 1052
798 LECLERC Freddy 01:01:31 - M 1312
799 PAYET Rose Marie 01:01:32 - F 1422
800 AH KOI Betty 01:01:34 CASM F 358
801 GENCE Nathalie 01:01:35 - F 1689
802 KEYGNAERT Johan 01:01:38 - M 689
803 HeRY Charlotte 01:01:40 - F 1148
804 SAMSON Valerie 01:01:41 Curves Saint Gilles F 284
805 JUVENAL Sylvie 01:01:41 Curves Le Port F 303
806 ROUSSEAU Boris 01:01:42 Carabins de la Reunion F 264
807 BASQUAISE Sophie 01:01:42 - F 1634
808 LEGROS Nicolas 01:01:44 CALSS M 1072
809 FOLIO Sophie 01:01:46 - F 70
810 REBOUL Marie Anne 01:01:47 - F 1292
811 BERTIL HOAREAU Karine 01:01:48 - F 414
812 RANGUIN Paul Gerard 01:01:49 - M 1447
813 DOCTEUR Jean 01:01:50 - M 1380
814 THURIEAU Helene 01:01:51 - F 984
815 VITRY Gilles 01:01:51 - M 1176
816 BARDIN Jean Pierre 01:01:52 - M 1450
817 HOAREAU Nicolas 01:01:52 - M 1224
818 CAILLIER Cedric 01:01:57 - M 452
819 THOMAS Laurent 01:01:58 - M 981
820 GRONDIN Noel 01:01:58 - M 91
821 PRIOUL Jacqueline 01:01:59 - F 183
822 BACHOUR Norman 01:01:59 - M 388
823 COUDY Marie 01:02:06 CASL F 485
824 LEROY Stephanie 01:02:06 - F 1286
825 SAINT AGNAN Roberto 01:02:07 - M 1390
826 SOURIOUX Cecile 01:02:07 - F 962
827 SALMON Jean marc 01:02:09 - M 947
828 MOIRON Christophe 01:02:09 - M 794
829 LEBON Stephanie 01:02:10 Victoria Club F 128
830 THIA KIME Valerie 01:02:13 - F 978
831 GODERON Louis 01:02:15 - M 1474
832 MARIMOUTOU Sophia 01:02:17 - F 1546
833 LYNAM Marie 01:02:20 - F 756
834 BARRET Kevin 01:02:21 - M 1172
835 GALAIS Anita 01:02:22 Semader F 1182
836 CASTAINGTS Florence 01:02:25 - F 1171
837 TAURIAC Sylviane 01:02:29 - F 1354
838 PAYET Rosa 01:02:29 Vie Libre F 238
839 HERY Pascal 01:02:30 - M 641
840 PAYET Jean Luc 01:02:30 Vie Libre M 236
841 LePINAY Cyril 01:02:31 - M 1375
842 GOUREAU Lise May 01:02:32 - F 85
843 TeCHER Merika 01:02:35 - F 1611
844 CAROUPIN Jean Claris 01:02:40 - M 1632
845 GRONDIN Marie denise 01:02:40 - F 618
846 DIJOUX Anne cecile 01:02:41 - F 526
847 GRONDIN Ariane 01:02:41 - F 1631
848 DEBAY ASFAUX Isabelle 01:02:42 - F 51
849 MEVEL Nathalie 01:02:42 - F 786
850 IDeE Regine 01:02:45 - F 1782
851 BAPIKI Ahmad 01:02:47 - M 15
852 JOVER Achelie 01:02:48 - F 1683
853 LUCIAN Edith 01:02:50 - F 1556
854 CLAIN Marie Helene 01:02:52 - F 1275
855 GALBOIS Nathalie 01:02:52 - F 585
856 FOURCADE Damien 01:02:53 - M 1342
857 DUCHEMANN Natacha 01:02:53 - F 536
858 LANE Sophie 01:02:53 - F 703
859 ISSELET Vanessa 01:02:54 - F 1341
860 MARIE Yohan 01:02:58 - M 775
861 LEYNAUD Gilbert 01:02:58 - M 746
862 VITRY Stephane 01:02:59 - M 1027
863 TURPIN Nicolas 01:02:59 - M 1225
864 LAFOSSE Brigitte 01:02:59 - F 696
865 GRONDIN Pascal 01:02:59 - M 627
866 CANIGUY Michele 01:02:59 - F 455
867 PAYET Annick 01:03:01 Vie Libre F 235
868 LAVAREL Rico 01:03:03 - M 717
869 PHILIPPE Luciana 01:03:04 - F 1410
870 HARRISSON Jules Jean Pierre 01:03:05 COSPI M 1408
871 FONTAINE Hugues 01:03:05 - M 570
872 DUBARD Bernadette 01:03:08 - F 532
873 HOAREAU Florence 01:03:09 - F 659
874 MOREL Florence 01:03:10 - F 1622
875 DIEBOLD Caroline 01:03:11 Curves Saint Denis F 305
876 DIEBOLD Christophe 01:03:12 Curves Saint Denis M 304
877 Dossard 1702 01:03:13 - M 1702
878 MEYER Anne sophie 01:03:16 - F 787
879 MINNI Maryse 01:03:16 - F 792
880 RIERENS Melissa 01:03:17 - F 1175
881 DE BONNAY Michou 01:03:18 - F 1205
882 JARDEL Stephanie 01:03:18 - F 1527
883 MINATCHY Patricia 01:03:20 - F 1160
884 BENIGUEL Florence 01:03:21 - F 409
885 ROZAIN Cedric 01:03:22 - M 1528
886 DUBARD Betty 01:03:23 - F 531
887 POILLION Charline 01:03:24 Carabins de la Reunion F 263
888 ALINCOURT Guillaume 01:03:25 Carabins de la Reunion M 254
889 ESPARON Jenna 01:03:27 Victoria Club F 62
890 PAYET Nicole 01:03:32 - F 861
891 CADET Marie Nicole 01:03:32 - F 1411
892 TISON Flora 01:03:34 - F 1382
893 SAMARAPATY Aurelie 01:03:34 - F 1057
894 LANGEVILLIER Ghislaine 01:03:35 - F 1492
895 VITRY Nadege 01:03:37 - F 1424
896 AMALOU Auzelie 01:03:40 - F 1592
897 GRONDIN SELLY Geraldine 01:03:41 - F 92
898 HOARAU Philippe 01:03:44 - M 656
899 LEPERLIER Gilles 01:03:45 - M 739
900 FABIEN Joelle 01:03:47 - F 552
901 ABIVEN Nadine 01:03:47 - F 350
902 LACAS Denise 01:03:48 - F 694
903 ROBERT Frederic 01:03:49 - M 933
904 TOULLEC Adeline 01:03:50 CASL F 989
905 LATXAGUE Sandrine 01:03:51 - F 710
906 LALLEMAND Madeleine Myrtille 01:03:51 - F 1469
907 AH KOI Alexis 01:03:51 - M 359
908 ESPAGNOL Agnes 01:03:51 - F 1232
909 LAGOURDE Marie Guylene 01:03:57 - F 1562
910 TOMAS Marc 01:03:58 - M 986
911 VINGADASSAMY Romain 01:04:00 Sema Team M 318
912 DAMBREVILLE Jade 01:04:03 - F 1163
913 MARA Marie Nadine 01:04:04 - F 1388
914 FABIAN Frederic 01:04:05 - M 551
915 PAYET Maryse 01:04:07 - F 862
916 LAURET Marie laure 01:04:08 - F 713
917 NAZE Isabelle 01:04:09 - F 824
918 MUSTUN Sabine 01:04:20 - F 817
919 PALAMA Suzette 01:04:22 - F 1035
920 CREUZET Jean Claude 01:04:23 - M 46
921 ETHEVE Barbara 01:04:25 - F 547
922 ROBERT Eymerick 01:04:28 - M 1055
923 MALET Valerie 01:04:32 - F 1333
924 CORRE Pascal 01:04:32 - M 483
925 TeCHER Claudine 01:04:33 ESC Montagne F 1180
926 VALIAMIN Pascal 01:04:40 - M 217
927 TAOCHY Laurette 01:04:44 - F 964
928 HAUSS Joil 01:04:44 RUN' ALTITUDE M 638
929 DRONZIN Jean Claude 01:04:45 - M 1220
930 LEKEUX Frederic 01:04:46 Belle I.D. M 135
931 SCHMITT MAGALIE 01:04:47 - F 1706
932 AH TCHINE Cedric 01:04:47 Carabins de la Reunion M 253
933 TERTRE MYRIAM 01:04:48 Carabins de la Reunion F 265
934 GEREZ Marion 01:04:48 Carabins de la Reunion F 260
935 PAYET Anne Julie 01:04:50 - F 78
936 NATIVEL Miguy 01:04:53 - F 1226
937 TAMBOUR JEAN ERIC 01:04:54 - M 1795
938 JANIELLO Viviana 01:04:57 - F 679
939 SEYCHELLES / MOULIN Gladys/ Alexandre 01:04:58 - F 956
940 BEN Marie pierre 01:05:00 - F 407
941 MAXIVEL Marie Claudine 01:05:01 - F 146
942 JAUReS Nelson 01:05:01 - M 1145
943 MONTEZ Christine 01:05:02 - F 796
944 GONZALEZ Agnes 01:05:03 - F 1216
945 HAMOT Jean pierrot 01:05:03 - M 635
946 CHANE TO Sebastien 01:05:12 - M 1427
947 HERY Marie 01:05:13 - F 642
948 GARRIC Camille 01:05:15 - F 588
949 GASTRIN Fabiola 01:05:15 - F 76
950 OLIVAR Aline 01:05:17 - F 1358
951 BOYER Flavien 01:05:17 Carabins de la Reunion M 242
952 MALLY Geraldine 01:05:17 - F 1603
953 SOUPAYA VALLIAMA Natacha fabiola 01:05:18 - F 961
954 JUVENAL Dolores 01:05:18 - F 687
955 MARDAYE PETCHY Elodie 01:05:18 Sema Team F 308
956 GARCIA Mathieu 01:05:20 - M 587
957 FIOMBEA Alexandre 01:05:22 - M 563
958 LABIE Rodolphe 01:05:22 - M 692
959 HOAREAU Patrice 01:05:23 - M 1159
960 FONTANA Marie dominique 01:05:24 - F 576
961 FONTAINE Sully 01:05:24 - M 1196
962 FORTES Jose 01:05:24 - M 577
963 MILHAU Cathie 01:05:25 - F 791
964 VAR Lucas 01:05:25 - M 1219
965 VALIAMIN Peggy 01:05:26 - F 216
966 BOSSON Nathalie 01:05:33 - F 423
967 MICHEAU Gladys 01:05:38 RUN ODYSSEA F 1285
968 RISQUO Beatrice 01:05:38 - F 921
969 DUBOIS Pascal 01:05:39 - M 535
970 BOULANGER Christelle 01:05:39 ASDR F 281
971 LALLEMAND Karine 01:05:39 - F 698
972 BOUCHEREAU Nathalie 01:05:41 - F 1038
973 AH VOUN Max 01:05:41 - M 6
974 ROMILY Marceau 01:05:42 Sema Team M 315
975 NATIVEL Valerie 01:05:47 - F 1334
976 SALVA Sandra 01:05:49 - F 1042
977 ALAVIN Coralie 01:05:50 - F 1371
978 GRENIER Aurelie 01:05:50 - F 1430
979 PAYET Marie Gilette 01:05:51 - F 167
980 GRONDIN Jean Patrice 01:05:52 - M 1321
981 GALIBERT CHRISTOPHE 01:05:52 - M 1699
982 PLISSON Marie Stephane 01:05:53 - F 886
983 GRUCHET Clarisse 01:05:54 - F 629
984 JOUVENOT Romain 01:05:54 - M 1516
985 NORMAND Franck 01:05:55 CRC M 322
986 FONTAINE Julie 01:05:56 - F 568
987 PAYET Manuela 01:05:58 - F 172
988 PAYET Jean Hugues 01:06:02 - M 1510
989 PAYET Marie Yvette 01:06:02 - F 1511
990 LEBON Camille 01:06:04 - M 725
991 SERY Jean bernard 01:06:05 - M 955
992 SERY Michele 01:06:05 - F 954
993 ALAUX Sophie 01:06:07 - F 364
994 HOARAU Nelson 01:06:08 - M 96
995 MARTIN CHAMPETIER Eric 01:06:08 - M 779
996 GONTHIER Corinne 01:06:08 - F 606
997 RICHARD Capucine 01:06:12 - F 912
998 COHIGNAC Gwenael 01:06:13 - F 476
999 DIJOUX Sylvette 01:06:22 - F 523
1000 POTHIN Julie 01:06:26 - F 896
1001 FONTAINE Remy 01:06:26 - M 574
1002 FABIEN Eric 01:06:27 - M 553
1003 ALAMELOU Laurent 01:06:27 - M 1277
1004 GROSPERRIN Hana 01:06:28 - F 1590
1005 RONDET Marielle 01:06:28 - F 1049
1006 BLANCHARD Sylvain 01:06:30 TCSA M 1627
1007 BLANCHARD Elizabeth 01:06:30 TCSA F 1628
1008 CHEVALIER Ulrich 01:06:31 - M 1448
1009 MERION Nadege 01:06:31 CALSS F 333
1010 BIANCHI Alain 01:06:32 - M 417
1011 FINET Alexandre 01:06:32 - M 562
1012 PONTALBA Marie claude 01:06:33 - F 892
1013 DUBLARD Johan 01:06:35 - M 534
1014 NGUYEN Anne 01:06:36 - M 831
1015 LAURET Pierre 01:06:37 - M 1452
1016 VELLARD Marie 01:06:41 - F 1638
1017 PAYET Marie Anise 01:06:41 - F 171
1018 HOARAU Mirella 01:06:47 - F 1143
1019 Dossard 1705 01:06:47 - M 1705
1020 ELISABETH Marie Annick 01:06:47 - F 1140
1021 EBY Laurence 01:06:49 - F 541
1022 ALBANHAC Sophie 01:06:49 - F 1332
1023 BENARD Marie pierrette 01:06:51 - F 408
1024 LEBOURG Sarah 01:06:52 - F 133
1025 ABLACOURT Lise 01:06:57 CALSS F 331
1026 NATIVEL Sophie 01:06:57 - F 1569
1027 PAYET Mimose 01:06:58 - F 860
1028 BOBeCHE Maximilienne 01:06:59 - F 1116
1029 ESTERLINGOT Michel 01:07:00 CALSS M 1077
1030 LEVENEUR Marguerite 01:07:00 - F 139
1031 FONTAINE Herve 01:07:01 - M 573
1032 PONTY Fabienne 01:07:05 - F 181
1033 JARRY Franck 01:07:05 - M 1323
1034 DEMEY Bruno 01:07:06 - M 1279
1035 JALBAUD Christine 01:07:07 - F 1150
1036 LAMOLY Nadine 01:07:11 - F 119
1037 MICHAUD Natacha 01:07:12 - F 790
1038 CADARSI Isabelle 01:07:13 - F 1549
1039 RENe Marie Enitcha 01:07:14 - F 185
1040 HOARAU Florence 01:07:16 Curves Le Port F 291
1041 COCHELIN Clarisse 01:07:17 - F 1209
1042 BRU Nathalie 01:07:19 - F 440
1043 CADET Celiane 01:07:22 - F 449
1044 BeGUE Louisette 01:07:27 - F 20
1045 FONTAINE Patricia 01:07:29 - F 564
1046 GRANDFOND Matthieu 01:07:34 - M 613
1047 DIJOUX Aurelie Marie 01:07:34 - F 1195
1048 FOURDRIN Carole 01:07:35 - F 73
1049 SALAMALA Alix 01:07:38 - M 1080
1050 LAUTREDOU Ingrid 01:07:38 - F 716
1051 TURBAN Kelly 01:07:39 CA POSSESSION F 998
1052 MIZZI Valerie 01:07:39 - F 1540
1053 HOARAU Patrick 01:07:39 - M 1463
1054 MOREL Marie Christine 01:07:40 - F 153
1055 NICOL Gina 01:07:42 - F 832
1056 Dossard 01:07:44 - M 0
1057 LHOTE Magalie 01:07:45 - F 748
1058 NASSIBOU Geraldine 01:07:48 - F 1543
1059 VITRY Frederique 01:07:48 - F 221
1060 LOKHAT Abdoul Ahad 01:07:49 Aresis M 1515
1061 COURDAL Yasmina 01:07:50 BNA F 1551
1062 MOREL Nadia 01:07:51 - F 155
1063 BRAGUE Sylvain 01:07:53 - M 1261
1064 DORSEUIL Pascal 01:07:55 - M 1345
1065 MOULIN Alexandre 01:07:55 - M 808
1066 TSENG KING Sandrine 01:07:55 - F 1346
1067 LANDAIS Jackson 01:07:57 - M 702
1068 BEAUR Jules 01:07:57 - M 1471
1069 BOYER Marty 01:08:06 - M 438
1070 PONGERARD Coralie 01:08:07 - F 890
1071 MEILLEUR Cecile 01:08:08 Runeuses F 1650
1072 LAMOLY Emilie 01:08:11 - F 116
1073 ASSING Sophie 01:08:14 DSA F 379
1074 VICINATI Odile 01:08:16 - F 1014
1075 PAYET Elsa 01:08:16 - F 858
1076 OGNARD Giovanni 01:08:16 - M 162
1077 MOREL Veronique 01:08:16 Aresis F 1396
1078 PAYET Patrick 01:08:17 DSA M 854
1079 MORVAN Catherine 01:08:17 - F 803
1080 PAYET Sabrina 01:08:18 DSA F 867
1081 IDEE Jean michel 01:08:18 - M 671
1082 DUPIC Elisabeth 01:08:20 - F 539
1083 LEROY Virginie 01:08:20 - F 1649
1084 CAZET Celine 01:08:23 - F 462
1085 MAAROUF BOUTIN Samira 01:08:23 - F 757
1086 SOULIE Romain 01:08:23 - M 1173
1087 BODZEN Magalie 01:08:25 AG2R La Mondiale F 27
1088 SAINT AGNAN Brigitte 01:08:25 - F 1391
1089 HOAREAU Gwenaille 01:08:26 - F 657
1090 DARENCOURT Josian 01:08:27 - M 1272
1091 DARENCOURT Claudia 01:08:27 - F 1273
1092 HOAREAU Danila 01:08:32 Curves Le Port F 300
1093 BILAIN Cindy 01:08:35 - F 1620
1094 GAZE Marie lucile 01:08:36 - F 591
1095 RIEME Sophie 01:08:36 - F 916
1096 SOUCHON Aude 01:08:37 - F 959
1097 ATIAMA Jacqueline 01:08:39 - F 381
1098 ROUSSEL Pascaline 01:08:39 Sinelec F 1574
1099 REYPE Valerie 01:08:39 - F 1451
1100 ARAYE Sandy 01:08:39 - M 374
1101 ROUSSEL Laurent 01:08:40 Sinelec M 1576
1102 PAJINADON Juliane 01:08:43 CALSS F 328
1103 COJINDEVEL Hermann 01:08:44 - M 1245
1104 SAYeDE Emilie 01:08:48 - F 201
1105 MOUILLON Beatrice 01:08:48 - F 807
1106 LAMOLY Audrey 01:08:49 - F 118
1107 DAMOUR Gilda 01:08:49 - F 49
1108 ABESCAT Emilie 01:08:55 AC Saint Paul F 1
1109 CHANE KI CHUNE Florence 01:08:56 - F 468
1110 CAVANE Nelcy 01:08:56 - F 460
1111 CORRE Bernadette 01:08:57 CALSS F 1078
1112 FAURE Christele 01:09:00 - F 556
1113 BOULANGER Valerie 01:09:02 - F 426
1114 BADIN Jessica 01:09:02 - F 390
1115 HUGUIES GRAHAM Stephanie 01:09:07 - F 669
1116 ABLANCOURT Rene Claude 01:09:08 CALSS M 1071
1117 ABLACOURT Jean Emile 01:09:09 CALSS M 332
1118 PERROCHEAU Anne sophie 01:09:09 - F 880
1119 NEUMANN Silke 01:09:10 - F 830
1120 COUROUPOULA Yannick 01:09:13 - M 486
1121 POLEYA Nathalie 01:09:13 - F 889
1122 FOUGEROUX Sylvie 01:09:16 - F 1241
1123 GRONDIN David 01:09:19 COSPCT M 270
1124 Dossard 01:09:19 - M 0
1125 MOUTAMA Isabelle 01:09:20 - F 810
1126 DE BOLLIVIER Anaos 01:09:22 - F 500
1127 GILLET Maylis 01:09:23 - F 1561
1128 GILLET Isabelle 01:09:23 - F 1560
1129 CALLY Sanjay 01:09:24 - M 39
1130 K/BIDI Isabelle 01:09:26 - F 1414
1131 GRONDIN Samantha 01:09:28 Aresis F 1394
1132 NADAUD Xavier 01:09:28 Aresis M 1397
1133 ROUAULT Sophie 01:09:29 - F 1169
1134 PAYET Maeva 01:09:29 - F 1648
1135 JUSTINE Melisa 01:09:30 - F 1066
1136 SAINT AGNAN Savamy 01:09:30 - M 1694
1137 NATIVEL Juliana 01:09:35 - F 1695
1138 PAYET Daniella 01:09:35 - F 1254
1139 NOEL Aurelie 01:09:35 - F 833
1140 BATAILLON Annie 01:09:35 - F 400
1141 PLANTE Florence 01:09:38 - F 1268
1142 TIMBOU Nathalie 01:09:38 - F 214
1143 BAS Laurence 01:09:40 - F 397
1144 GILOUPPE Marie Line 01:09:48 - F 82
1145 DAMBREVILLE Nicole 01:09:53 - F 495
1146 PAYET Emmanuel b 01:09:54 - M 857
1147 FONTAINE Yanis 01:09:54 - M 572
1148 PAYET Sebastien 01:09:54 - M 870
1149 PAYET Marie Joelle 01:09:54 - F 863
1150 DUPUY Nathalie 01:09:55 V1F - F 60
1151 VAiTILINGOM Arthur 01:09:55 - M 1432
1152 MAC WING Gilles 01:09:55 - M 758
1153 SERRAYET Marie Laure 01:09:55 - F 1660
1154 JAGUT Segolene 01:09:55 - F 675
1155 DUPART Nadia 01:09:56 - F 1659
1156 GUGLIELMACCI Stephane 01:09:56 - M 1365
1157 LORIN Amelina 01:09:56 Curves Le Port F 302
1158 LIEGEY Marine 01:09:56 - F 1122
1159 GUGLIELMACCI Robin 01:09:56 - M 1362
1160 MOUSSA Zeid 01:09:57 - M 809
1161 LUSANG Brice 01:09:58 - M 1376
1162 LEFeVRE Yoland 01:09:58 Groupe Agnes Lebon M 229
1163 FABRE Florence 01:10:01 DSA F 554
1164 CAVERY Joy Eve 01:10:06 - F 1405
1165 HOARAU Jims 01:10:06 - M 1403
1166 LEYNAUD Manuella 01:10:07 - F 745
1167 PAYET Patrick 01:10:09 - M 1251
1168 PAYET Nadine 01:10:10 - F 1324
1169 TSONG CHIN CHUEN ALINE 01:10:12 - F 1704
1170 DAMBREVILLE Emmanuelle 01:10:14 - F 1565
1171 AROUMOUGOM Christophe 01:10:15 - M 1566
1172 RAVeNE Randy 01:10:15 - M 1558
1173 LAURET Joille 01:10:18 - F 712
1174 MARSAN Marie julienne 01:10:19 - F 777
1175 BESNEAU Alice 01:10:20 ASDR F 276
1176 VIALON Olivia 01:10:20 Vie Libre F 241
1177 LUSBARONIAN Sandrine 01:10:22 RUN ODYSSEA F 141
1178 HOAREAU Elodie clarisse 01:10:23 - F 661
1179 HINOUT FONTAINE Regine 01:10:24 - F 645
1180 YALOS Maryvonne 01:10:25 Curves Le Port F 298
1181 ROULLOT Michel 01:10:28 - M 194
1182 VILLIN Anne marie 01:10:30 - F 1021
1183 VICTOIRE Veronique 01:10:34 - F 1124
1184 RIEUTORD Philippe 01:10:34 - M 1123
1185 NAIGOM Catherine 01:10:35 - F 820
1186 ETHeVE Mirella 01:10:38 - F 1453
1187 MAES Marilene 01:10:39 - F 761
1188 ERUDEL Marie Therese 01:10:39 - F 1480
1189 CADET Sophie 01:10:41 - F 451
1190 HOAREAU Nadia 01:10:41 - F 662
1191 MORTHOMAS Sabine 01:10:45 - F 156
1192 ABEILARD Stephanie 01:10:47 - F 348
1193 TESSIER Claire 01:10:47 - F 975
1194 TESSIER Annie 01:10:47 - F 976
1195 RANGAMA Loan 01:10:48 - M 908
1196 EBY Emmanuel 01:10:48 - M 542
1197 TeCHER Nicole 01:10:49 - F 1067
1198 BARLIEU Stephane 01:10:50 - M 394
1199 OULeDI Benedicte 01:10:53 - F 1483
1200 LOUVARD Manuela 01:10:54 - F 1498
1201 CHOPINET Joelle 01:10:55 - F 471
1202 LEBON Marie Gitane 01:10:56 - F 129
1203 LIRIO Melinda 01:11:01 - F 1305
1204 BERGE Eric 01:11:04 - M 411
1205 CLERISSI Denise 01:11:04 CALSS F 342
1206 OULEDI Marie Renee 01:11:06 - F 835
1207 OULEDI Expedit 01:11:06 - M 834
1208 VIENNE Mylene 01:11:07 - F 1018
1209 GARNIER Pauline 01:11:08 Carabins de la Reunion F 259
1210 ROSSOLIN Sandrine 01:11:08 - F 941
1211 CHAN OU TEUNG Tomy 01:11:10 - M 43
1212 VITRY Priscilla 01:11:13 - F 1024
1213 DOYER Audrey 01:11:14 ASDR F 274
1214 ALBERT Jessica 01:11:17 - F 365
1215 NEAU Stephanie 01:11:17 - F 827
1216 GIGAN Berthe 01:11:17 - F 1449
1217 CHOPINET Ariste 01:11:18 - M 472
1218 BOESCH Fabrice 01:11:19 - M 418
1219 KARLIN Marjorie 01:11:19 - F 688
1220 PONCIN Julie 01:11:20 - F 1442
1221 LADEN Amandine 01:11:20 - F 1441
1222 MUSSARD Sabine 01:11:20 - F 816
1223 LEFEVRE FranAoise 01:11:20 - F 735
1224 HOARAU Erika 01:11:21 - F 650
1225 ORUS Edwige 01:11:33 - F 1547
1226 CRAMPE Laurent 01:11:35 La Pena Santa Maria M 1130
1227 CRENN Johann 01:11:35 RANCE JOGGING M 489
1228 VIALON Cynthia 01:11:36 Vie Libre F 239
1229 PEROUSSE Roselyne 01:11:37 - F 1308
1230 FONTAINE Maryse 01:11:37 - F 565
1231 BOURRINET Wilfried 01:11:38 - M 428
1232 CADET Ludovic 01:11:48 - M 1646
1233 Dossard 1645 01:11:48 - M 1645
1234 COMBES Danielle 01:11:49 - F 477
1235 GAILLET Romy 01:11:54 - F 1060
1236 RIVIERE Sandrine 01:11:58 - F 925
1237 GEFFROTIN Sophie 01:12:01 - F 592
1238 LESSORT Dominique 01:12:06 - F 742
1239 ROMILY Eileen 01:12:11 - F 940
1240 TROUILLET Claudine 01:12:11 - F 997
1241 RIEMENS Gilles 01:12:13 - M 189
1242 BESSEIGE Alice 01:12:16 - F 416
1243 VERDIER Sophie 01:12:17 - F 1009
1244 FINEL Celine 01:12:17 - F 561
1245 PIETRA Nancy 01:12:17 - F 884
1246 CADET Camille 01:12:17 - F 448
1247 COSIALS Suzanne 01:12:17 - F 484
1248 PORTOLLEAU Cecile 01:12:17 - F 894
1249 ROLEME Stephanie 01:12:17 - F 937
1250 BEGUE Nathalie 01:12:18 - F 403
1251 REZETTE Thomas 01:12:18 - M 1093
1252 RAKOTONDRAINIBE Nivo 01:12:24 - F 905
1253 DEBOISVILLIERS Nadine 01:12:26 Curves Saint Gilles F 283
1254 LEBIHAN Julie 01:12:26 - F 724
1255 PALAMA Tony 01:12:32 - M 1584
1256 ROBERT France line 01:12:34 - F 931
1257 VATEL Marie sabine 01:12:36 - F 1007
1258 GRONDIN Marie helene 01:12:37 - F 626
1259 TERNET Clemence 01:12:40 - F 974
1260 CHANE KENE Marie Nadege 01:12:40 - F 1059
1261 CHANE KENE Lisa 01:12:40 - F 1061
1262 DOMENJOD Nicole 01:12:41 - F 54
1263 DELHOM Tristan 01:12:42 - M 1582
1264 PAYET Julie 01:12:42 - F 1581
1265 DALAMA Gisele 01:12:44 - F 494
1266 GERVILLE Madeleine 01:12:45 COSPCT F 268
1267 PHILIPON Laura 01:12:48 - F 1677
1268 VAN ASSCHE Peggy 01:12:51 - F 1002
1269 POUMAILLOUX Agnes 01:12:51 - F 899
1270 ISSABHAI Hassan 01:12:52 - M 672
1271 CALMETTE Felicia 01:12:58 Vie Libre F 232
1272 NOUGEIN Eric 01:12:59 - M 1118
1273 GIRARDIN Emmanuelle 01:12:59 - F 597
1274 MAROUDAYE Cedric 01:13:00 Sinelec M 1573
1275 GOURREAU Rachel 01:13:01 - F 612
1276 MASCAREL Ino 01:13:02 - M 1269
1277 SINATAMBY Eulalie 01:13:03 - F 957
1278 LABENNE Anne Sophie 01:13:08 - F 1406
1279 ALLIOUX Karine 01:13:08 - F 1637
1280 GIGAN Chantal 01:13:09 - F 1247
1281 HOAREAU Louna 01:13:09 - F 1276
1282 SERRANO Marie valentine 01:13:11 - F 953
1283 HOAREAU Olivier 01:13:12 - M 103
1284 FARELLE Sylvie 01:13:15 MAOTEO F 555
1285 Dossard 1797 01:13:15 - M 1797
1286 PAYET Jean bernard 01:13:20 - M 852
1287 LEBIAN Alexandre 01:13:23 - M 1178
1288 LEPERLIER Marie Josette 01:13:27 - F 1357
1289 FUTOL Prosper 01:13:28 CALSS M 1075
1290 NAVARRO Pierre 01:13:31 - M 1591
1291 HATTE Christine 01:13:33 - F 1100
1292 NAZE Kelly 01:13:35 - F 825
1293 NEMORIN Denis 01:13:38 - M 828
1294 CROCHET Denis 01:13:38 - M 1108
1295 POURRAIN Laure 01:13:40 - F 182
1296 DAVID Valerie 01:13:40 - M 50
1297 PAYET Christophe 01:13:40 - M 853
1298 NEMORIN Jeanne marie 01:13:43 - F 829
1299 TOUCHARD Elvina 01:13:44 - F 988
1300 BRABANT Marie Suzie 01:13:45 - F 35
1301 COSTA Melanie 01:13:49 - F 1600
1302 GHEFSI Marc 01:13:54 - M 79
1303 BUONOMANO Thierry 01:13:55 - M 443
1304 TROMMSDORFF Robert 01:14:01 - M 996
1305 VITRY Valerie 01:14:02 - F 1026
1306 DELHoME Aurore 01:14:06 - F 1147
1307 ROBIN Eglantine 01:14:11 - F 934
1308 ETHeVE Lucile 01:14:12 - F 65
1309 ARAYE FALLER Charline 01:14:25 - F 376
1310 CAZANOVE Ingrid 01:14:33 - F 461
1311 CAZANOVE Irena 01:14:34 - F 1356
1312 ESPARON Claudette 01:14:34 Victoria Club F 63
1313 ANTOINE Christophe 01:14:35 - M 1317
1314 TROMMSDORFF Valerie 01:14:36 - F 995
1315 JALMA Corinne 01:14:40 - F 677
1316 PONGERARD Coette 01:14:41 - F 887
1317 LEROY Philippe 01:14:47 - M 740
1318 BROHAN Dominique 01:14:48 - M 1431
1319 CERTAT Marie Josee 01:14:52 - F 1385
1320 REBARA Evelyne 01:14:52 - F 1619
1321 TURPIN Angelique 01:14:53 - F 1098
1322 PAYET Dominique 01:14:53 DSA F 855
1323 POULIER Laetitia 01:14:54 Les Zolies F 1083
1324 COSSARD Julie 01:14:54 Les Zolies F 1084
1325 APOSTOLOFF Catherine 01:14:55 - F 370
1326 AMADI Reine Claude 01:15:01 - F 1544
1327 TABLEAU Dolores 01:15:04 - F 1644
1328 ADOLPHE Marie laure 01:15:08 - F 355
1329 DENNEMONT Jacqueline 01:15:11 - F 1294
1330 AUGOYARD Anne 01:15:13 - F 384
1331 CRANSAC Benoit 01:15:13 - M 488
1332 ABEILARD Ludovic 01:15:16 - M 349
1333 DELCHIDRE Cyril 01:15:19 Belle I.D. M 52
1334 BACTORA Marie 01:15:20 Carabins de la Reunion F 255
1335 CHANE JOE CHOW Lea 01:15:20 Carabins de la Reunion F 256
1336 COLLET Roseline 01:15:22 - F 1586
1337 DEVILLARDS Fanny 01:15:26 - F 516
1338 DELEAGE Thierry 01:15:27 La Pena Santa Maria M 1133
1339 HARMS Jan dirk 01:15:32 - M 637
1340 LUCILLY Marie Louise 01:15:41 - F 1129
1341 GROSPERRIN Celine 01:15:44 - F 1587
1342 GROSPERRIN Christophe 01:15:44 - M 1588
1343 MYRTHO Anesie 01:15:49 - F 818
1344 HUET Mirella 01:15:53 - F 105
1345 DIORFLAR Jean Pierre 01:15:54 - M 1488
1346 AGENOR Rose lys 01:16:00 - F 356
1347 MOREL Virginie 01:16:03 - F 1420
1348 BERTAUT Georges 01:16:07 - M 22
1349 LEUNG TACK KHIME Christelle 01:16:11 - F 743
1350 ALBERT Melanie 01:16:11 - F 366
1351 LEGRAND Loise 01:16:13 ASDR F 279
1352 PILAUD Bruno 01:16:16 - M 885
1353 THIERY Patrick 01:16:21 - M 980
1354 MeDAR Sylvie 01:16:22 - F 1437
1355 FONTAINE Edna 01:16:23 - F 1062
1356 MELQUIOND Patrice 01:16:25 - M 782
1357 DUCH Charlotte 01:16:33 Edena F 1700
1358 LABONTE Christopher 01:16:40 - M 693
1359 DOISEUL Sophia 01:16:40 - F 1568
1360 HOARAU Samuella 01:16:43 Aresis F 1395
1361 VINGADASSALOM Viraman 01:16:48 - F 1154
1362 PICARD Patricia Rosine 01:16:48 - F 174
1363 LAQUIA Lucie 01:16:48 Sorefi F 120
1364 DIJOUX Annabelle 01:16:57 - F 1197
1365 YOU Dominique 01:17:09 - M 1033
1366 TURPIN Maryline 01:17:13 passionrandorun F 1000
1367 CRAMPE Hafida 01:17:27 La Pena Santa Maria F 1131
1368 NEEL Celine 01:17:30 CALSS F 345
1369 HOARAU MYRIAM 01:17:30 Curves Le Port F 290
1370 GOUTORBE Flavie 01:17:31 Curves Le Port F 297
1371 LEBRETON Roger 01:17:33 - M 730
1372 VIRAMOUTOU Aurore 01:17:34 - F 1149
1373 VAR Laurence 01:17:35 - F 144
1374 DIORFLAR Catherine 01:17:36 - F 527
1375 MOUTIEN Valerie 01:17:40 - F 811
1376 ANTOINE Maude 01:17:43 - F 1296
1377 BRUGERON Marie danielle 01:17:55 - F 441
1378 BRUGERON Pascal 01:17:55 - M 442
1379 ARMOURDOM Marie annick roxane 01:17:57 - F 378
1380 LEBON Mathieu 01:17:57 - M 132
1381 CORDONIN Florent 01:17:58 - M 482
1382 HOARAU Marie pierre 01:17:59 - F 649
1383 BURNET Elisabeth 01:17:59 - F 1348
1384 RANGAMA PETCHY Seeven 01:17:59 Sema Team M 317
1385 POUZET Regine 01:18:00 - F 900
1386 THIA KIME Christophe 01:18:09 - M 977
1387 BALAYA Josie 01:18:09 - F 391
1388 GRENOUILLE Isabelle 01:18:22 - F 615
1389 MOREL Julien 01:18:24 DENIV M 801
1390 AH NIEME Olivia 01:18:24 DENIV F 362
1391 PEYRON Caroline 01:18:26 - F 1263
1392 VICTOIRE Corinne 01:18:30 - F 1125
1393 RIHOUAY Anais 01:18:31 - F 918
1394 THOMAS Marie 01:18:34 - F 982
1395 PATEUX Pascal 01:18:34 - M 843
1396 PONIN GOBALOU Marie Francoise 01:18:35 - F 891
1397 GRONDIN Stephanie 01:18:48 - F 623
1398 GRONDIN Viviane 01:18:50 - F 625
1399 GRONDIN Patrice 01:18:50 - M 624
1400 BOUCHER Armelle 01:19:04 - F 424
1401 VERGOZ Sylvie 01:19:05 - F 1010
1402 MAYER Virginie 01:19:21 - F 1326
1403 PERFILLON Liliane 01:19:24 - F 877
1404 LADERVAL Lorna 01:19:32 - F 695
1405 JALMA Virginie 01:19:35 - F 676
1406 DEMEY Gina 01:19:36 - F 1290
1407 SERRA Soni 01:19:37 - F 952
1408 K/BIDI Julien 01:19:48 - M 1335
1409 DELPIERRE Raphael 01:19:49 - M 1331
1410 ABODI Josie 01:19:50 - F 354
1411 ERUDEL Bernard 01:19:57 - M 1212
1412 HOAREAU Marie Line 01:20:06 - F 100
1413 GUeRIN Nelsy 01:20:11 - F 93
1414 ARASA Severine 01:20:13 - F 373
1415 NICOLESSI QUESTE Kareen 01:20:48 Curves Le Port F 294
1416 MALAGA Marie 01:20:49 - F 769
1417 RAOULT Muriel 01:20:51 - F 909
1418 CANET Auriel 01:20:52 La Pena Santa Maria F 1134
1419 AH VOUNE Jennifer 01:21:00 - F 363
1420 SALAMA Nathalie 01:21:07 - F 196
1421 ERUDEL Yvette 01:21:48 - F 1213
1422 K/BIDI Virginie 01:22:08 - F 1415
1423 STATHOPULOS Ludmila 01:22:12 - F 1064
1424 STATHOPULOS Sebastien 01:22:12 - M 1063
1425 RICHARD Maeva 01:22:31 - F 914
1426 CLEF Gwendolyne 01:22:31 - F 473
1427 CLEF David 01:22:31 - M 474
1428 BARDIL Lauriane 01:22:58 - F 1465
1429 DUJARDIN Corinne 01:23:04 - F 538
1430 VALENCIENNES Jessika 01:23:05 - F 1530
1431 MICAELLI Audrey 01:23:06 - F 789
1432 TAMBON Angelique 01:23:23 - F 1037
1433 CARRON Anne laure 01:23:37 - F 458
1434 GUILBAUD Emmanuelle 01:23:55 - F 632
1435 BADROUZAMANI Elsa 01:23:56 - F 13
1436 K/BIDI Marie Annick 01:24:19 - F 1413
1437 SeRY Karl 01:24:30 - M 1144
1438 MAILLOT Cecile 01:24:36 - F 1136
1439 ROUSSE Helene 01:24:42 - F 195
1440 FOURNIER Isabelle 01:24:43 - F 579
1441 DIJOUX Reine 01:25:10 - F 525
1442 DIJOUX Jean noel 01:25:33 - M 520
1443 DIJOUX Marie micaise 01:25:33 - F 521
1444 MOTTAY Edwige 01:25:36 - F 806
1445 GALLAND Marie andree 01:25:36 - F 586
1446 ELSEN Elodie 01:25:37 - F 543
1447 TECHER Corine 01:25:50 - F 969
1448 CALMETTE Angeline 01:26:16 Vie Libre F 231
1449 BALLEMAN Josiane 01:26:29 - F 392
1450 DUGUIN Agnes 01:26:36 - F 537
1451 LENCLUME Amandine 01:26:58 Semader F 1665
1452 TETIA Graziella 01:27:47 - F 1464
1453 LE BOURVELLEC Michelle 01:27:54 - F 720
1454 BON Ketty 01:27:59 - F 1255
1455 FRANCES Axel 01:28:18 - M 948
1456 PAMPHILE Nicoletta 01:28:52 - F 1299
1457 EUPHEMIE Jessie 01:28:53 - F 548
1458 TELL Aurelie 01:28:57 Sema Team F 306
1459 TELL Valerie 01:29:01 Semader F 1664
1460 LAKANE Remy 01:29:27 - M 697
1461 PAYET Virginie 01:29:27 - F 859
1462 FAILLY Viviane 01:29:27 - F 67
1463 LANGE Valerie 01:29:27 - F 704
1464 DUBART Emmanuelle 01:29:55 - F 533
1465 HAN YEE YU Laurence 01:31:44 - F 636
1466 TOPLAN Sylviane 01:31:46 - F 1069
1467 LEGROS Marie Paule 01:33:53 - F 1199
1468 BALENCOURT Emmanuelle 01:35:37 - F 14
1469 LASKY Annaelle 01:35:51 Vie Libre F 234
1470 TESTAN Judith 01:35:57 - F 1117
1471 SALAMALA LEONE 01:35:57 - F 1079
1472 GREZE Laetitia 01:36:39 Les Zolies F 1089
1473 ETHeVE Sylvie 01:36:39 Les Zolies F 1090
1474 MOIMBA Linda 01:38:33 Les Zolies F 1087
1475 BOTOSMISY Robeline 01:43:34 - F 31
1476 HASSANI Mraati 01:43:35 - M 1468
1477 XITRA Evelyne 01:43:35 - F 1031
1478 RANGUIN Yoann 01:51:25 - M 868
1479 ABDALLAH MAHMAD Sakira 02:04:20 Les Zolies F 1086


ReferencementCe site est listé dans la catégorie Sport : Sports extrêmes Dictionnaire
| Accueil | La Réunion  Vue du ciel | Météo | Cyclones | Volcan | Cirques de Mafate , Cilaos , Salazie | Photos Randonnées | Randonnées Réunion: Randos Espiègle , Courses montagne | Diagonale des Fous |  Marathon des Sables | Voyages Les stats du site | Fonds écran | Plan du site | Blog de runraid | Galerie photos Sport Réunion |